Mt Bomar Mars — 9HCM9 — position and weather

sailwx.info

Track history (hours):
 
Tides and Currents Weather Stations Pressure Air Temp Water Temp Dewpoint Dewpoint Depression Visibility Wind Speed Wind Dir Waves Ship Positions

Mt Bomar Mars

Last reported at 2015-Feb-01 12:34 UTC. Time now 2015-Feb-01 22:50 UTC.
Position N 57°52' E 010°31'.

Length 107 m; draft 4.9 m.

Type: Ship. MMSI: 256784000.

Date/timePositionNaut miles runAvg speedWind from/ knotsBaromVisibWave heightAir tempDewpointWater temp
2015-Feb-01 12:34N 57°52' E 010°31'1111.3
2015-Feb-01 11:34N 57°49' E 010°51'1212.0
2015-Feb-01 10:33N 57°43' E 011°11'1212.0
2015-Feb-01 09:33N 57°37' E 011°31'1111.0
2015-Feb-01 08:33N 57°41' E 011°50'2 1.5
2015-Feb-01 07:33N 57°41' E 011°53'0 0.0
2015-Feb-01 06:33N 57°41' E 011°53'0 0.0
2015-Feb-01 05:33N 57°41' E 011°53'0 0.0
2015-Feb-01 04:33N 57°41' E 011°53'0 0.0
2015-Feb-01 03:30N 57°41' E 011°53'0 0.0
2015-Feb-01 02:33N 57°41' E 011°53'0 0.0
2015-Feb-01 01:33N 57°41' E 011°53'0 0.0
2015-Feb-01 00:33N 57°41' E 011°53'0 0.0
2015-Jan-31 23:33N 57°41' E 011°53'0 0.0
2015-Jan-31 22:33N 57°41' E 011°53'0 0.0
2015-Jan-31 21:33N 57°41' E 011°53'0 0.0
2015-Jan-31 20:33N 57°41' E 011°53'0 0.0
2015-Jan-31 19:33N 57°41' E 011°53'1 1.2
2015-Jan-31 18:33N 57°41' E 011°51'1010.1
2015-Jan-31 17:33N 57°36' E 011°34'8 7.6
2015-Jan-31 16:33N 57°39' E 011°21'1110.8
2015-Jan-31 15:34N 57°45' E 011°04'1111.2
2015-Jan-31 14:34N 57°50' E 010°45'1110.6
2015-Jan-31 13:33N 57°49' E 010°25'14111.5
2015-Jan-31 01:20N 56°17' E 007°10'1012.9
2015-Jan-31 00:32N 56°08' E 007°00'12112.9
2015-Jan-30 15:09N 54°22' E 005°17'813.1
2015-Jan-30 14:33N 54°16' E 005°09'1313.1
2015-Jan-30 13:33N 54°06' E 004°55'1412.6
2015-Jan-30 12:27N 53°52' E 004°52'1312.5
2015-Jan-30 11:26N 53°40' E 004°50'1112.3
2015-Jan-30 10:33N 53°29' E 004°45'1212.1
2015-Jan-30 09:32N 53°18' E 004°37'1211.8
2015-Jan-30 08:33N 53°07' E 004°28'1211.7
2015-Jan-30 07:33N 52°57' E 004°18'1111.5
2015-Jan-30 06:33N 52°47' E 004°09'1111.2
2015-Jan-30 05:33N 52°38' E 004°00'1111.0
2015-Jan-30 04:33N 52°27' E 003°54'1110.8
2015-Jan-30 03:33N 52°17' E 003°52'1111.5
2015-Jan-30 02:33N 52°05' E 003°56'9 8.8
2015-Jan-30 01:33N 51°59' E 004°06'10 9.5
2015-Jan-30 00:31N 51°53' E 004°18'0 0.0
2015-Jan-29 23:25N 51°53' E 004°18'0 0.0
2015-Jan-29 22:31N 51°53' E 004°18'0 0.0
2015-Jan-29 21:31N 51°53' E 004°18'0 0.0
2015-Jan-29 20:31N 51°53' E 004°18'0 0.0
2015-Jan-29 19:31N 51°53' E 004°18'0 0.0
2015-Jan-29 18:31N 51°53' E 004°18'0 0.0
2015-Jan-29 17:31N 51°53' E 004°18'0 0.0
2015-Jan-29 16:31N 51°53' E 004°18'0 0.0
2015-Jan-29 15:31N 51°53' E 004°18'0 0.0
2015-Jan-29 14:31N 51°53' E 004°18'0 0.0
2015-Jan-29 13:31N 51°53' E 004°18'0 0.0
2015-Jan-29 12:28N 51°53' E 004°18'0 0.0
2015-Jan-29 11:31N 51°53' E 004°18'0 0.0
2015-Jan-29 10:31N 51°53' E 004°18'0 0.0
2015-Jan-29 09:31N 51°53' E 004°18'0 0.0
2015-Jan-29 08:31N 51°53' E 004°18'0 0.0
2015-Jan-29 07:31N 51°53' E 004°18'0 0.0
2015-Jan-29 06:31N 51°53' E 004°18'0 0.0
2015-Jan-29 05:31N 51°53' E 004°18'0 0.0
2015-Jan-29 04:31N 51°53' E 004°18'0 0.0
2015-Jan-29 03:31N 51°53' E 004°18'0 0.0
2015-Jan-29 02:31N 51°53' E 004°18'1 0.8
2015-Jan-29 01:33N 51°54' E 004°18'10 9.5
2015-Jan-29 00:33N 51°59' E 004°05'1110.5
2015-Jan-28 23:33N 52°01' E 003°48'1110.7
2015-Jan-28 22:33N 52°08' E 003°35'2 2.4
2015-Jan-28 21:33N 52°10' E 003°36'0 0.3
2015-Jan-28 20:32N 52°10' E 003°36'1 0.8
2015-Jan-28 19:33N 52°09' E 003°37'7011.3
2015-Jan-28 13:22N 52°52' E 002°07'1114.0
2015-Jan-28 12:34N 52°58' E 001°51'1413.9
2015-Jan-28 11:34N 53°06' E 001°31'1412.8
2015-Jan-28 10:29N 53°15' E 001°15'2711.9
2015-Jan-28 08:12N 53°33' E 000°41'711.0
2015-Jan-28 07:34N 53°39' E 000°34'1110.6
2015-Jan-28 06:33N 53°50' E 000°32'1010.3
2015-Jan-28 05:33N 53°59' E 000°26'1010.0
2015-Jan-28 04:33N 54°09' E 000°21'1010.4
2015-Jan-28 03:33N 54°19' E 000°16'1010.5
2015-Jan-28 02:33N 54°29' E 000°10'1010.0
2015-Jan-28 01:33N 54°38' E 000°04'1110.6
2015-Jan-28 00:33N 54°41' W 000°13'1111.0
2015-Jan-27 23:33N 54°45' W 000°32'1111.4
2015-Jan-27 22:33N 54°46' W 000°51'15 2.4
2015-Jan-27 16:27N 54°36' W 001°11'0 0.0
2015-Jan-27 14:30N 54°36' W 001°11'0 0.0
2015-Jan-27 13:30N 54°36' W 001°11'0 0.0
2015-Jan-27 12:30N 54°36' W 001°11'0 0.0
2015-Jan-27 11:33N 54°36' W 001°11'0 0.0
2015-Jan-27 10:27N 54°36' W 001°11'0 0.0
2015-Jan-27 09:18N 54°36' W 001°11'0 0.0
2015-Jan-27 08:33N 54°36' W 001°11'5 0.4
2015-Jan-26 20:33N 54°40' W 001°05'10 9.9
2015-Jan-26 19:33N 54°39' W 000°48'1110.0
2015-Jan-26 18:29N 54°35' W 000°32'910.1
2015-Jan-26 17:33N 54°31' W 000°16'1110.5
2015-Jan-26 16:33N 54°27' E 000°00'1110.9
2015-Jan-26 15:33N 54°22' E 000°17'1111.0
2015-Jan-26 14:33N 54°17' E 000°34'16911.1
2015-Jan-25 23:20N 52°07' E 003°35'911.6
2015-Jan-25 22:33N 52°04' E 003°48'1110.9
2015-Jan-25 21:33N 51°59' E 004°04'1111.0
2015-Jan-25 20:33N 51°53' E 004°19'0 0.0
2015-Jan-25 19:28N 51°53' E 004°19'0 0.0
2015-Jan-25 18:31N 51°53' E 004°19'0 0.0
2015-Jan-25 17:31N 51°53' E 004°19'0 0.0
2015-Jan-25 16:31N 51°53' E 004°19'0 0.0
2015-Jan-25 15:31N 51°53' E 004°19'0 0.0
2015-Jan-25 14:31N 51°53' E 004°19'0 0.0
2015-Jan-25 13:31N 51°53' E 004°19'0 0.0
2015-Jan-25 12:31N 51°53' E 004°19'0 0.0
2015-Jan-25 11:31N 51°53' E 004°19'0 0.0
2015-Jan-25 10:31N 51°53' E 004°19'0 0.0
2015-Jan-25 09:31N 51°53' E 004°19'0 0.0
2015-Jan-25 08:31N 51°53' E 004°19'0 0.0
2015-Jan-25 07:31N 51°53' E 004°19'0 0.0
2015-Jan-25 06:31N 51°53' E 004°19'0 0.0
2015-Jan-25 05:31N 51°53' E 004°19'0 0.0
2015-Jan-25 04:31N 51°53' E 004°19'0 0.0
2015-Jan-25 03:31N 51°53' E 004°19'0 0.0
2015-Jan-25 02:31N 51°53' E 004°19'0 0.0
2015-Jan-25 01:31N 51°53' E 004°19'0 0.0
2015-Jan-25 00:31N 51°53' E 004°19'0 0.0
2015-Jan-24 23:31N 51°53' E 004°19'0 0.0
2015-Jan-24 22:31N 51°53' E 004°19'0 0.0
2015-Jan-24 21:31N 51°53' E 004°19'0 0.0
2015-Jan-24 20:31N 51°53' E 004°19'0 0.0
2015-Jan-24 19:31N 51°53' E 004°19'0 0.0
2015-Jan-24 18:31N 51°53' E 004°19'0 0.0
2015-Jan-24 17:31N 51°53' E 004°19'0 0.0
2015-Jan-24 16:31N 51°53' E 004°19'2 2.2
2015-Jan-24 15:33N 51°54' E 004°21'3 3.3
2015-Jan-24 14:31N 51°54' E 004°27'0 0.0
2015-Jan-24 13:31N 51°54' E 004°27'0 0.0
2015-Jan-24 12:31N 51°54' E 004°27'0 0.0
2015-Jan-24 11:31N 51°54' E 004°27'0 0.0
2015-Jan-24 10:31N 51°54' E 004°27'0 0.0
2015-Jan-24 09:31N 51°54' E 004°27'0 0.0
2015-Jan-24 08:31N 51°54' E 004°27'0 0.0
2015-Jan-24 07:31N 51°54' E 004°27'0 0.0
2015-Jan-24 06:31N 51°54' E 004°27'0 0.0
2015-Jan-24 05:31N 51°54' E 004°27'0 0.0
2015-Jan-24 04:31N 51°54' E 004°27'0 0.0
2015-Jan-24 03:28N 51°54' E 004°27'0 0.0
2015-Jan-24 02:31N 51°54' E 004°27'0 0.0
2015-Jan-24 01:31N 51°54' E 004°27'0 0.0
2015-Jan-24 00:31N 51°54' E 004°27'0 0.0
2015-Jan-23 23:31N 51°54' E 004°27'0 0.0
2015-Jan-23 22:31N 51°54' E 004°27'0 0.0
2015-Jan-23 21:28N 51°54' E 004°27'0 0.0
2015-Jan-23 20:25N 51°54' E 004°27'0 0.0
2015-Jan-23 19:31N 51°54' E 004°27'0 0.0
2015-Jan-23 18:31N 51°54' E 004°27'0 0.0
2015-Jan-23 17:25N 51°54' E 004°27'0 0.0
2015-Jan-23 16:31N 51°54' E 004°27'0 0.0
2015-Jan-23 15:31N 51°54' E 004°27'0 0.0
2015-Jan-23 14:31N 51°54' E 004°27'0 0.0
2015-Jan-23 13:31N 51°54' E 004°27'0 0.0
2015-Jan-23 12:31N 51°54' E 004°27'0 0.0
2015-Jan-23 11:31N 51°54' E 004°27'0 0.0
2015-Jan-23 10:31N 51°54' E 004°27'0 0.0
2015-Jan-23 09:31N 51°54' E 004°27'0 0.0
2015-Jan-23 08:28N 51°54' E 004°27'0 0.0
2015-Jan-23 07:31N 51°54' E 004°27'0 0.0
2015-Jan-23 06:31N 51°54' E 004°27'0 0.0
2015-Jan-23 05:31N 51°54' E 004°27'0 0.0
2015-Jan-23 04:31N 51°54' E 004°27'0 0.0
2015-Jan-23 03:31N 51°54' E 004°27'0 0.0
2015-Jan-23 02:31N 51°54' E 004°27'0 0.0
2015-Jan-23 01:31N 51°54' E 004°27'0 0.0
2015-Jan-23 00:31N 51°54' E 004°27'0 0.0
2015-Jan-22 23:31N 51°54' E 004°27'0 0.0
2015-Jan-22 22:31N 51°54' E 004°27'0 0.0
2015-Jan-22 21:31N 51°54' E 004°27'0 0.0
2015-Jan-22 20:31N 51°54' E 004°27'0 0.0
2015-Jan-22 19:31N 51°54' E 004°27'0 0.0
2015-Jan-22 18:31N 51°54' E 004°27'0 0.0
2015-Jan-22 17:31N 51°54' E 004°27'0 0.0
2015-Jan-22 16:28N 51°54' E 004°27'0 0.0
2015-Jan-22 15:31N 51°54' E 004°27'0 0.0
2015-Jan-22 14:31N 51°54' E 004°27'0 0.0
2015-Jan-22 13:31N 51°54' E 004°27'  
Track history (hours):
 
Tides and Currents Weather Stations Pressure Air Temp Water Temp Dewpoint Dewpoint Depression Visibility Wind Speed Wind Dir Waves Ship Positions

Mt Bomar Mars

Last reported at 2015-Feb-01 12:34 UTC. Time now 2015-Feb-01 22:50 UTC.
Position N 57°52' E 010°31'.

Length 107 m; draft 4.9 m.

Type: Ship. MMSI: 256784000.

Date/timePositionNaut miles runAvg speedWind from/ knotsBaromVisibWave heightAir tempDewpointWater temp
2015-Feb-01 12:34N 57°52' E 010°31'1111.3
2015-Feb-01 11:34N 57°49' E 010°51'1212.0
2015-Feb-01 10:33N 57°43' E 011°11'1212.0
2015-Feb-01 09:33N 57°37' E 011°31'1111.0
2015-Feb-01 08:33N 57°41' E 011°50'2 1.5
2015-Feb-01 07:33N 57°41' E 011°53'0 0.0
2015-Feb-01 06:33N 57°41' E 011°53'0 0.0
2015-Feb-01 05:33N 57°41' E 011°53'0 0.0
2015-Feb-01 04:33N 57°41' E 011°53'0 0.0
2015-Feb-01 03:30N 57°41' E 011°53'0 0.0
2015-Feb-01 02:33N 57°41' E 011°53'0 0.0
2015-Feb-01 01:33N 57°41' E 011°53'0 0.0
2015-Feb-01 00:33N 57°41' E 011°53'0 0.0
2015-Jan-31 23:33N 57°41' E 011°53'0 0.0
2015-Jan-31 22:33N 57°41' E 011°53'0 0.0
2015-Jan-31 21:33N 57°41' E 011°53'0 0.0
2015-Jan-31 20:33N 57°41' E 011°53'0 0.0
2015-Jan-31 19:33N 57°41' E 011°53'1 1.2
2015-Jan-31 18:33N 57°41' E 011°51'1010.1
2015-Jan-31 17:33N 57°36' E 011°34'8 7.6
2015-Jan-31 16:33N 57°39' E 011°21'1110.8
2015-Jan-31 15:34N 57°45' E 011°04'1111.2
2015-Jan-31 14:34N 57°50' E 010°45'1110.6
2015-Jan-31 13:33N 57°49' E 010°25'14111.5
2015-Jan-31 01:20N 56°17' E 007°10'1012.9
2015-Jan-31 00:32N 56°08' E 007°00'12112.9
2015-Jan-30 15:09N 54°22' E 005°17'813.1
2015-Jan-30 14:33N 54°16' E 005°09'1313.1
2015-Jan-30 13:33N 54°06' E 004°55'1412.6
2015-Jan-30 12:27N 53°52' E 004°52'1312.5
2015-Jan-30 11:26N 53°40' E 004°50'1112.3
2015-Jan-30 10:33N 53°29' E 004°45'1212.1
2015-Jan-30 09:32N 53°18' E 004°37'1211.8
2015-Jan-30 08:33N 53°07' E 004°28'1211.7
2015-Jan-30 07:33N 52°57' E 004°18'1111.5
2015-Jan-30 06:33N 52°47' E 004°09'1111.2
2015-Jan-30 05:33N 52°38' E 004°00'1111.0
2015-Jan-30 04:33N 52°27' E 003°54'1110.8
2015-Jan-30 03:33N 52°17' E 003°52'1111.5
2015-Jan-30 02:33N 52°05' E 003°56'9 8.8
2015-Jan-30 01:33N 51°59' E 004°06'10 9.5
2015-Jan-30 00:31N 51°53' E 004°18'0 0.0
2015-Jan-29 23:25N 51°53' E 004°18'0 0.0
2015-Jan-29 22:31N 51°53' E 004°18'0 0.0
2015-Jan-29 21:31N 51°53' E 004°18'0 0.0
2015-Jan-29 20:31N 51°53' E 004°18'0 0.0
2015-Jan-29 19:31N 51°53' E 004°18'0 0.0
2015-Jan-29 18:31N 51°53' E 004°18'0 0.0
2015-Jan-29 17:31N 51°53' E 004°18'0 0.0
2015-Jan-29 16:31N 51°53' E 004°18'0 0.0
2015-Jan-29 15:31N 51°53' E 004°18'0 0.0
2015-Jan-29 14:31N 51°53' E 004°18'0 0.0
2015-Jan-29 13:31N 51°53' E 004°18'0 0.0
2015-Jan-29 12:28N 51°53' E 004°18'0 0.0
2015-Jan-29 11:31N 51°53' E 004°18'0 0.0
2015-Jan-29 10:31N 51°53' E 004°18'0 0.0
2015-Jan-29 09:31N 51°53' E 004°18'0 0.0
2015-Jan-29 08:31N 51°53' E 004°18'0 0.0
2015-Jan-29 07:31N 51°53' E 004°18'0 0.0
2015-Jan-29 06:31N 51°53' E 004°18'0 0.0
2015-Jan-29 05:31N 51°53' E 004°18'0 0.0
2015-Jan-29 04:31N 51°53' E 004°18'0 0.0
2015-Jan-29 03:31N 51°53' E 004°18'0 0.0
2015-Jan-29 02:31N 51°53' E 004°18'1 0.8
2015-Jan-29 01:33N 51°54' E 004°18'10 9.5
2015-Jan-29 00:33N 51°59' E 004°05'1110.5
2015-Jan-28 23:33N 52°01' E 003°48'1110.7
2015-Jan-28 22:33N 52°08' E 003°35'2 2.4
2015-Jan-28 21:33N 52°10' E 003°36'0 0.3
2015-Jan-28 20:32N 52°10' E 003°36'1 0.8
2015-Jan-28 19:33N 52°09' E 003°37'7011.3
2015-Jan-28 13:22N 52°52' E 002°07'1114.0
2015-Jan-28 12:34N 52°58' E 001°51'1413.9
2015-Jan-28 11:34N 53°06' E 001°31'1412.8
2015-Jan-28 10:29N 53°15' E 001°15'2711.9
2015-Jan-28 08:12N 53°33' E 000°41'711.0
2015-Jan-28 07:34N 53°39' E 000°34'1110.6
2015-Jan-28 06:33N 53°50' E 000°32'1010.3
2015-Jan-28 05:33N 53°59' E 000°26'1010.0
2015-Jan-28 04:33N 54°09' E 000°21'1010.4
2015-Jan-28 03:33N 54°19' E 000°16'1010.5
2015-Jan-28 02:33N 54°29' E 000°10'1010.0
2015-Jan-28 01:33N 54°38' E 000°04'1110.6
2015-Jan-28 00:33N 54°41' W 000°13'1111.0
2015-Jan-27 23:33N 54°45' W 000°32'1111.4
2015-Jan-27 22:33N 54°46' W 000°51'15 2.4
2015-Jan-27 16:27N 54°36' W 001°11'0 0.0
2015-Jan-27 14:30N 54°36' W 001°11'0 0.0
2015-Jan-27 13:30N 54°36' W 001°11'0 0.0
2015-Jan-27 12:30N 54°36' W 001°11'0 0.0
2015-Jan-27 11:33N 54°36' W 001°11'0 0.0
2015-Jan-27 10:27N 54°36' W 001°11'0 0.0
2015-Jan-27 09:18N 54°36' W 001°11'0 0.0
2015-Jan-27 08:33N 54°36' W 001°11'5 0.4
2015-Jan-26 20:33N 54°40' W 001°05'10 9.9
2015-Jan-26 19:33N 54°39' W 000°48'1110.0
2015-Jan-26 18:29N 54°35' W 000°32'910.1
2015-Jan-26 17:33N 54°31' W 000°16'1110.5
2015-Jan-26 16:33N 54°27' E 000°00'1110.9
2015-Jan-26 15:33N 54°22' E 000°17'1111.0
2015-Jan-26 14:33N 54°17' E 000°34'16911.1
2015-Jan-25 23:20N 52°07' E 003°35'911.6
2015-Jan-25 22:33N 52°04' E 003°48'1110.9
2015-Jan-25 21:33N 51°59' E 004°04'1111.0
2015-Jan-25 20:33N 51°53' E 004°19'0 0.0
2015-Jan-25 19:28N 51°53' E 004°19'0 0.0
2015-Jan-25 18:31N 51°53' E 004°19'0 0.0
2015-Jan-25 17:31N 51°53' E 004°19'0 0.0
2015-Jan-25 16:31N 51°53' E 004°19'0 0.0
2015-Jan-25 15:31N 51°53' E 004°19'0 0.0
2015-Jan-25 14:31N 51°53' E 004°19'0 0.0
2015-Jan-25 13:31N 51°53' E 004°19'0 0.0
2015-Jan-25 12:31N 51°53' E 004°19'0 0.0
2015-Jan-25 11:31N 51°53' E 004°19'0 0.0
2015-Jan-25 10:31N 51°53' E 004°19'0 0.0
2015-Jan-25 09:31N 51°53' E 004°19'0 0.0
2015-Jan-25 08:31N 51°53' E 004°19'0 0.0
2015-Jan-25 07:31N 51°53' E 004°19'0 0.0
2015-Jan-25 06:31N 51°53' E 004°19'0 0.0
2015-Jan-25 05:31N 51°53' E 004°19'0 0.0
2015-Jan-25 04:31N 51°53' E 004°19'0 0.0
2015-Jan-25 03:31N 51°53' E 004°19'0 0.0
2015-Jan-25 02:31N 51°53' E 004°19'0 0.0
2015-Jan-25 01:31N 51°53' E 004°19'0 0.0
2015-Jan-25 00:31N 51°53' E 004°19'0 0.0
2015-Jan-24 23:31N 51°53' E 004°19'0 0.0
2015-Jan-24 22:31N 51°53' E 004°19'0 0.0
2015-Jan-24 21:31N 51°53' E 004°19'0 0.0
2015-Jan-24 20:31N 51°53' E 004°19'0 0.0
2015-Jan-24 19:31N 51°53' E 004°19'0 0.0
2015-Jan-24 18:31N 51°53' E 004°19'0 0.0
2015-Jan-24 17:31N 51°53' E 004°19'0 0.0
2015-Jan-24 16:31N 51°53' E 004°19'2 2.2
2015-Jan-24 15:33N 51°54' E 004°21'3 3.3
2015-Jan-24 14:31N 51°54' E 004°27'0 0.0
2015-Jan-24 13:31N 51°54' E 004°27'0 0.0
2015-Jan-24 12:31N 51°54' E 004°27'0 0.0
2015-Jan-24 11:31N 51°54' E 004°27'0 0.0
2015-Jan-24 10:31N 51°54' E 004°27'0 0.0
2015-Jan-24 09:31N 51°54' E 004°27'0 0.0
2015-Jan-24 08:31N 51°54' E 004°27'0 0.0
2015-Jan-24 07:31N 51°54' E 004°27'0 0.0
2015-Jan-24 06:31N 51°54' E 004°27'0 0.0
2015-Jan-24 05:31N 51°54' E 004°27'0 0.0
2015-Jan-24 04:31N 51°54' E 004°27'0 0.0
2015-Jan-24 03:28N 51°54' E 004°27'0 0.0
2015-Jan-24 02:31N 51°54' E 004°27'0 0.0
2015-Jan-24 01:31N 51°54' E 004°27'0 0.0
2015-Jan-24 00:31N 51°54' E 004°27'0 0.0
2015-Jan-23 23:31N 51°54' E 004°27'0 0.0
2015-Jan-23 22:31N 51°54' E 004°27'0 0.0
2015-Jan-23 21:28N 51°54' E 004°27'0 0.0
2015-Jan-23 20:25N 51°54' E 004°27'0 0.0
2015-Jan-23 19:31N 51°54' E 004°27'0 0.0
2015-Jan-23 18:31N 51°54' E 004°27'0 0.0
2015-Jan-23 17:25N 51°54' E 004°27'0 0.0
2015-Jan-23 16:31N 51°54' E 004°27'0 0.0
2015-Jan-23 15:31N 51°54' E 004°27'0 0.0
2015-Jan-23 14:31N 51°54' E 004°27'0 0.0
2015-Jan-23 13:31N 51°54' E 004°27'0 0.0
2015-Jan-23 12:31N 51°54' E 004°27'0 0.0
2015-Jan-23 11:31N 51°54' E 004°27'0 0.0
2015-Jan-23 10:31N 51°54' E 004°27'0 0.0
2015-Jan-23 09:31N 51°54' E 004°27'0 0.0
2015-Jan-23 08:28N 51°54' E 004°27'0 0.0
2015-Jan-23 07:31N 51°54' E 004°27'0 0.0
2015-Jan-23 06:31N 51°54' E 004°27'0 0.0
2015-Jan-23 05:31N 51°54' E 004°27'0 0.0
2015-Jan-23 04:31N 51°54' E 004°27'0 0.0
2015-Jan-23 03:31N 51°54' E 004°27'0 0.0
2015-Jan-23 02:31N 51°54' E 004°27'0 0.0
2015-Jan-23 01:31N 51°54' E 004°27'0 0.0
2015-Jan-23 00:31N 51°54' E 004°27'0 0.0
2015-Jan-22 23:31N 51°54' E 004°27'0 0.0
2015-Jan-22 22:31N 51°54' E 004°27'0 0.0
2015-Jan-22 21:31N 51°54' E 004°27'0 0.0
2015-Jan-22 20:31N 51°54' E 004°27'0 0.0
2015-Jan-22 19:31N 51°54' E 004°27'0 0.0
2015-Jan-22 18:31N 51°54' E 004°27'0 0.0
2015-Jan-22 17:31N 51°54' E 004°27'0 0.0
2015-Jan-22 16:28N 51°54' E 004°27'0 0.0
2015-Jan-22 15:31N 51°54' E 004°27'0 0.0
2015-Jan-22 14:31N 51°54' E 004°27'0 0.0
2015-Jan-22 13:31N 51°54' E 004°27'  

Dump ship's entire track history